createdAt,value
2018-07-27T00:00:37.836Z,5.73
2018-07-27T00:03:07.917Z,5.40
2018-07-27T00:05:38.460Z,6.00
2018-07-27T00:08:08.124Z,5.93
2018-07-27T00:10:37.715Z,5.80
2018-07-27T00:13:08.034Z,5.60
2018-07-27T00:15:37.690Z,5.23
2018-07-27T00:18:07.568Z,5.30
2018-07-27T00:20:37.283Z,5.47
2018-07-27T00:23:07.083Z,5.43
2018-07-27T00:25:36.718Z,5.37
2018-07-27T00:28:06.425Z,5.17
2018-07-27T00:30:36.044Z,5.20
2018-07-27T00:33:05.998Z,5.30
2018-07-27T00:35:35.677Z,5.50
2018-07-27T00:38:05.412Z,5.37
2018-07-27T00:40:35.029Z,5.50
2018-07-27T00:43:04.754Z,5.00
2018-07-27T00:45:34.512Z,5.40
2018-07-27T00:48:04.295Z,5.73
2018-07-27T00:50:33.903Z,5.30
2018-07-27T00:53:03.780Z,5.00
2018-07-27T00:55:33.565Z,5.13
2018-07-27T00:58:03.277Z,5.30
2018-07-27T01:00:32.956Z,4.97
2018-07-27T01:03:02.654Z,5.00
2018-07-27T01:05:32.274Z,5.13
2018-07-27T01:08:02.679Z,5.07
2018-07-27T01:10:32.420Z,5.00
2018-07-27T01:13:02.385Z,4.90
2018-07-27T01:15:32.034Z,5.47
2018-07-27T01:18:01.332Z,4.73
2018-07-27T01:20:31.058Z,5.30
2018-07-27T01:23:00.893Z,5.50
2018-07-27T01:25:30.480Z,6.03
2018-07-27T01:28:00.191Z,5.80
2018-07-27T01:30:30.500Z,4.90
2018-07-27T01:33:00.299Z,5.60
2018-07-27T01:35:30.317Z,5.47
2018-07-27T01:38:00.280Z,5.27
2018-07-27T01:40:30.255Z,5.20
2018-07-27T01:43:00.087Z,5.37
2018-07-27T01:45:30.005Z,5.13
2018-07-27T01:47:59.773Z,5.43
2018-07-27T01:50:29.471Z,5.30
2018-07-27T01:52:59.379Z,6.17
2018-07-27T01:55:29.068Z,5.77
2018-07-27T01:57:59.393Z,5.90
2018-07-27T02:00:29.116Z,5.23
2018-07-27T02:02:58.840Z,5.57
2018-07-27T02:05:29.089Z,5.47
2018-07-27T02:07:58.873Z,6.00
2018-07-27T02:10:28.531Z,5.90
2018-07-27T02:12:58.300Z,6.27
2018-07-27T02:15:27.910Z,5.60
2018-07-27T02:17:57.675Z,5.60
2018-07-27T02:20:27.314Z,6.13
2018-07-27T02:22:56.976Z,5.47
2018-07-27T02:25:26.718Z,6.10
2018-07-27T02:27:56.424Z,6.50
2018-07-27T02:30:26.163Z,5.87
2018-07-27T02:32:55.888Z,5.60
2018-07-27T02:35:25.536Z,6.50
2018-07-27T02:38:02.099Z,5.97
2018-07-27T02:40:31.661Z,5.43
2018-07-27T02:43:01.361Z,5.97
2018-07-27T02:45:31.006Z,5.63
2018-07-27T02:48:00.904Z,5.60
2018-07-27T02:50:31.354Z,5.27
2018-07-27T02:53:08.482Z,5.63
2018-07-27T02:55:39.212Z,5.43
2018-07-27T02:58:09.624Z,5.33
2018-07-27T03:00:39.314Z,5.33
2018-07-27T03:03:09.000Z,5.57
2018-07-27T03:05:38.795Z,5.27
2018-07-27T03:08:08.499Z,6.00
2018-07-27T03:10:38.473Z,5.30
2018-07-27T03:13:08.229Z,5.40
2018-07-27T03:15:38.099Z,5.37
2018-07-27T03:18:08.293Z,5.50
2018-07-27T03:20:38.032Z,6.33
2018-07-27T03:23:08.215Z,5.50
2018-07-27T03:25:37.828Z,5.90
2018-07-27T03:28:07.968Z,6.10
2018-07-27T03:30:38.362Z,5.93
2018-07-27T03:33:08.067Z,6.10
2018-07-27T03:40:03.307Z,6.17
2018-07-27T03:42:33.107Z,6.30
2018-07-27T03:45:02.973Z,6.13
2018-07-27T03:47:32.592Z,6.43
2018-07-27T03:50:02.428Z,6.77
2018-07-27T03:52:32.228Z,5.70
2018-07-27T03:55:02.192Z,6.30
2018-07-27T03:57:32.497Z,5.83
2018-07-27T04:00:02.188Z,6.00
2018-07-27T04:02:31.819Z,6.00
2018-07-27T04:05:01.581Z,5.73
2018-07-27T04:07:31.449Z,6.07
2018-07-27T04:10:02.402Z,5.93
2018-07-27T04:12:32.104Z,6.33
2018-07-27T04:15:02.398Z,6.03
2018-07-27T04:17:32.043Z,5.97
2018-07-27T04:20:02.398Z,5.80
2018-07-27T04:22:32.089Z,6.50
2018-07-27T04:25:01.714Z,5.90
2018-07-27T04:27:31.950Z,6.27
2018-07-27T04:30:01.899Z,5.87
2018-07-27T04:32:31.579Z,6.17
2018-07-27T04:35:01.187Z,5.90
2018-07-27T04:37:30.830Z,6.13
2018-07-27T04:40:00.489Z,5.63
2018-07-27T04:42:30.223Z,6.03
2018-07-27T04:44:59.870Z,5.77
2018-07-27T04:47:29.721Z,5.80
2018-07-27T04:49:59.433Z,5.60
2018-07-27T04:52:29.788Z,5.50
2018-07-27T04:55:00.140Z,5.25
2018-07-27T04:57:29.824Z,5.72
2018-07-27T04:59:59.501Z,5.67
2018-07-27T05:02:29.121Z,5.62
2018-07-27T05:04:58.912Z,5.37
2018-07-27T05:07:28.663Z,6.00
2018-07-27T05:09:59.068Z,5.70
2018-07-27T05:12:28.712Z,5.67
2018-07-27T05:14:58.356Z,5.85
2018-07-27T05:17:28.687Z,5.87
2018-07-27T05:19:58.331Z,5.87
2018-07-27T05:22:28.020Z,5.53
2018-07-27T05:24:58.623Z,5.58
2018-07-27T05:27:29.011Z,6.17
2018-07-27T05:29:58.610Z,5.42
2018-07-27T05:32:29.066Z,5.70
2018-07-27T05:34:59.530Z,5.50
2018-07-27T05:37:29.568Z,5.22
2018-07-27T05:39:59.218Z,5.60
2018-07-27T05:42:28.995Z,5.75
2018-07-27T05:44:58.692Z,5.20
2018-07-27T05:47:28.440Z,5.70
2018-07-27T05:49:59.695Z,5.50
2018-07-27T05:52:29.768Z,5.08
2018-07-27T05:54:59.529Z,5.20
2018-07-27T05:57:29.679Z,5.25
2018-07-27T05:59:59.408Z,5.35
2018-07-27T06:02:29.163Z,5.40
2018-07-27T06:05:05.148Z,5.95
2018-07-27T06:07:34.832Z,5.80
2018-07-27T06:10:05.253Z,5.80
2018-07-27T06:12:34.895Z,5.00
2018-07-27T06:15:05.396Z,5.42
2018-07-27T06:17:35.093Z,5.17
2018-07-27T06:20:06.155Z,5.47
2018-07-27T06:22:36.368Z,5.03
2018-07-27T06:25:06.493Z,5.17
2018-07-27T06:27:36.221Z,5.40
2018-07-27T06:30:07.506Z,5.15
2018-07-27T06:32:37.050Z,5.22
2018-07-27T06:35:06.739Z,5.15
2018-07-27T06:37:36.380Z,5.00
2018-07-27T06:40:06.619Z,5.22
2018-07-27T06:42:36.427Z,5.00
2018-07-27T06:45:07.766Z,4.90
2018-07-27T06:47:37.966Z,4.90
2018-07-27T06:50:07.795Z,5.00
2018-07-27T06:52:37.465Z,5.03
2018-07-27T06:55:07.088Z,4.72
2018-07-27T06:57:36.675Z,4.95
2018-07-27T07:00:07.037Z,5.12
2018-07-27T07:02:36.706Z,4.70
2018-07-27T07:05:06.731Z,4.50
2018-07-27T07:07:36.493Z,5.03
2018-07-27T07:10:06.930Z,5.08
2018-07-27T07:12:36.675Z,4.55
2018-07-27T07:15:08.655Z,5.20
2018-07-27T07:17:38.318Z,5.25
2018-07-27T07:20:09.563Z,5.10
2018-07-27T07:22:39.481Z,4.67
2018-07-27T07:25:09.174Z,5.10
2018-07-27T07:27:38.899Z,4.50
2018-07-27T07:30:08.615Z,5.00
2018-07-27T07:32:38.293Z,5.10
2018-07-27T07:35:07.908Z,5.67
2018-07-27T07:37:37.646Z,5.25
2018-07-27T07:40:08.579Z,4.83
2018-07-27T07:42:38.415Z,5.45
2018-07-27T07:45:08.954Z,5.33
2018-07-27T07:47:39.325Z,5.67
2018-07-27T07:50:08.979Z,5.75
2018-07-27T07:52:38.924Z,5.05
2018-07-27T07:55:08.692Z,5.37
2018-07-27T07:57:38.617Z,5.25
2018-07-27T08:00:10.280Z,5.28
2018-07-27T08:02:41.033Z,5.60
2018-07-27T08:05:11.600Z,5.50
2018-07-27T08:07:41.526Z,5.62
2018-07-27T08:10:11.882Z,5.15
2018-07-27T08:12:41.544Z,5.60
2018-07-27T08:15:11.262Z,5.58
2018-07-27T08:17:41.634Z,5.50
2018-07-27T08:20:11.387Z,5.87
2018-07-27T08:22:41.234Z,5.58
2018-07-27T08:25:10.874Z,5.75
2018-07-27T08:27:40.552Z,5.55
2018-07-27T08:30:15.364Z,5.22
2018-07-27T08:32:45.038Z,5.75
2018-07-27T08:35:14.934Z,5.58
2018-07-27T08:37:45.224Z,5.75
2018-07-27T08:40:14.957Z,5.62
2018-07-27T08:42:44.596Z,5.70
2018-07-27T08:45:14.460Z,4.90
2018-07-27T08:47:44.229Z,5.20
2018-07-27T08:50:16.673Z,5.15
2018-07-27T08:52:47.064Z,5.40
2018-07-27T08:55:16.918Z,5.30
2018-07-27T08:57:46.592Z,5.08
2018-07-27T09:00:16.642Z,5.45
2018-07-27T09:02:46.633Z,4.80
2018-07-27T09:05:17.153Z,5.20
2018-07-27T09:07:47.405Z,4.80
2018-07-27T09:10:17.078Z,4.40
2018-07-27T09:12:46.801Z,4.20
2018-07-27T09:15:16.578Z,4.17
2018-07-27T09:17:46.412Z,4.55
2018-07-27T09:20:16.049Z,4.85
2018-07-27T09:22:45.805Z,4.67
2018-07-27T09:25:15.901Z,4.67
2018-07-27T09:27:45.152Z,4.85
2018-07-27T09:30:14.879Z,4.55
2018-07-27T09:32:44.722Z,5.12
2018-07-27T09:35:14.470Z,4.40
2018-07-27T09:37:44.857Z,4.90
2018-07-27T09:40:14.480Z,4.50
2018-07-27T09:42:44.245Z,4.20
2018-07-27T09:45:14.201Z,4.75
2018-07-27T09:47:43.958Z,4.55
2018-07-27T09:50:13.794Z,4.80
2018-07-27T09:52:43.556Z,4.60
2018-07-27T09:55:13.196Z,5.00
2018-07-27T09:57:42.904Z,5.03
2018-07-27T10:00:13.060Z,5.00
2018-07-27T10:02:42.784Z,5.08
2018-07-27T10:05:12.454Z,4.55
2018-07-27T10:07:42.120Z,4.53
2018-07-27T10:10:12.149Z,4.33
2018-07-27T10:12:42.614Z,4.50
2018-07-27T10:15:12.313Z,4.50
2018-07-27T10:17:41.704Z,4.20
2018-07-27T10:20:12.114Z,4.80
2018-07-27T10:22:41.793Z,5.00
2018-07-27T10:25:11.504Z,4.37
2018-07-27T10:27:41.127Z,3.52
2018-07-27T10:30:10.786Z,3.77
2018-07-27T10:32:40.382Z,3.52
2018-07-27T10:35:10.141Z,4.30
2018-07-27T10:37:39.792Z,4.40
2018-07-27T10:40:10.739Z,4.05
2018-07-27T10:42:40.407Z,4.55
2018-07-27T10:45:10.060Z,4.12
2018-07-27T10:47:40.250Z,4.05
2018-07-27T10:50:09.920Z,4.50
2018-07-27T10:52:39.531Z,3.50
2018-07-27T10:55:09.275Z,3.30
2018-07-27T10:57:39.347Z,2.90
2018-07-27T11:00:13.605Z,2.83
2018-07-27T11:02:43.183Z,3.30
2018-07-27T11:05:13.743Z,3.37
2018-07-27T11:07:43.913Z,2.83
2018-07-27T11:10:13.560Z,2.95
2018-07-27T11:12:43.260Z,3.00
2018-07-27T11:15:12.914Z,3.33
2018-07-27T11:17:42.644Z,3.10
2018-07-27T11:20:12.242Z,3.02
2018-07-27T11:22:42.039Z,2.83
2018-07-27T11:25:11.843Z,3.22
2018-07-27T11:27:41.528Z,3.20
2018-07-27T11:30:11.227Z,3.35
2018-07-27T11:32:40.986Z,2.95
2018-07-27T11:35:10.725Z,2.55
2018-07-27T11:37:40.453Z,2.90
2018-07-27T11:40:10.512Z,3.40
2018-07-27T11:42:40.732Z,2.65
2018-07-27T11:45:10.584Z,3.62
2018-07-27T11:47:40.168Z,3.55
2018-07-27T11:50:09.870Z,3.72
2018-07-27T11:52:39.603Z,4.10
2018-07-27T11:55:09.233Z,3.70
2018-07-27T11:57:38.884Z,4.15
2018-07-27T12:00:08.720Z,3.30
2018-07-27T12:02:38.368Z,4.25
2018-07-27T12:05:08.322Z,4.40
2018-07-27T12:07:38.639Z,3.37
2018-07-27T12:10:08.256Z,4.28
2018-07-27T12:12:38.160Z,3.27
2018-07-27T12:15:08.136Z,3.75
2018-07-27T12:17:37.649Z,3.52
2018-07-27T12:20:07.307Z,4.33
2018-07-27T12:22:37.015Z,4.37
2018-07-27T12:25:06.750Z,3.95
2018-07-27T12:27:36.495Z,4.00
2018-07-27T12:30:07.159Z,4.12
2018-07-27T12:32:36.961Z,3.92
2018-07-27T12:35:06.682Z,3.80
2018-07-27T12:37:36.363Z,3.95
2018-07-27T12:40:05.944Z,4.13
2018-07-27T12:42:35.751Z,4.50
2018-07-27T12:45:05.570Z,4.20
2018-07-27T12:47:35.221Z,4.30
2018-07-27T12:50:05.791Z,4.70
2018-07-27T12:52:35.492Z,4.27
2018-07-27T12:55:05.788Z,4.60
2018-07-27T12:57:35.462Z,4.80
2018-07-27T13:00:06.663Z,4.70
2018-07-27T13:02:36.410Z,5.00
2018-07-27T13:05:06.824Z,4.80
2018-07-27T13:07:36.622Z,4.70
2018-07-27T13:10:07.885Z,4.65
2018-07-27T13:12:38.464Z,5.33
2018-07-27T13:15:09.778Z,5.03
2018-07-27T13:17:39.524Z,5.10
2018-07-27T13:20:09.414Z,5.22
2018-07-27T13:22:39.313Z,5.08
2018-07-27T13:25:09.107Z,4.55
2018-07-27T13:27:38.805Z,4.70
2018-07-27T13:30:08.566Z,5.62
2018-07-27T13:32:38.572Z,5.37
2018-07-27T13:37:38.276Z,6.03
2018-07-27T13:40:08.196Z,5.33
2018-07-27T13:42:38.140Z,5.42
2018-07-27T13:45:08.228Z,5.58
2018-07-27T13:47:38.241Z,5.53
2018-07-27T13:50:08.317Z,5.30
2018-07-27T13:52:38.241Z,4.70
2018-07-27T13:55:08.547Z,4.80
2018-07-27T13:57:38.696Z,4.78
2018-07-27T14:00:08.658Z,4.37
2018-07-27T14:02:38.750Z,4.33
2018-07-27T14:05:08.580Z,4.72
2018-07-27T14:07:38.635Z,4.80
2018-07-27T14:10:08.473Z,4.12
2018-07-27T14:12:38.275Z,4.50
2018-07-27T14:15:08.348Z,4.17
2018-07-27T14:17:38.301Z,4.00
2018-07-27T14:20:08.399Z,4.33
2018-07-27T14:22:38.400Z,4.20
2018-07-27T14:25:08.224Z,3.92
2018-07-27T14:27:37.955Z,5.50
2018-07-27T14:30:08.956Z,4.45
2018-07-27T14:32:38.814Z,4.50
2018-07-27T14:35:08.992Z,4.37
2018-07-27T14:37:38.937Z,4.80
2018-07-27T14:40:08.660Z,4.53
2018-07-27T14:42:41.787Z,4.30
2018-07-27T14:45:12.084Z,4.40
2018-07-27T14:47:41.892Z,4.22
2018-07-27T14:50:16.035Z,4.40
2018-07-27T14:52:45.722Z,4.42
2018-07-27T14:55:15.564Z,4.47
2018-07-27T14:57:45.462Z,4.58
2018-07-27T15:00:15.476Z,4.80
2018-07-27T15:02:46.525Z,4.50
2018-07-27T15:05:16.432Z,4.40
2018-07-27T15:07:46.209Z,4.70
2018-07-27T15:10:16.263Z,4.83
2018-07-27T15:12:46.084Z,5.20
2018-07-27T15:15:15.941Z,5.03
2018-07-27T15:17:45.836Z,4.53
2018-07-27T15:20:16.087Z,4.58
2018-07-27T15:22:45.840Z,4.58
2018-07-27T15:25:15.661Z,4.28
2018-07-27T15:27:46.728Z,4.28
2018-07-27T15:30:16.953Z,4.55
2018-07-27T15:32:46.847Z,4.83
2018-07-27T15:35:16.896Z,5.35
2018-07-27T15:37:51.539Z,4.30
2018-07-27T15:40:21.535Z,4.58
2018-07-27T15:42:51.368Z,5.10
2018-07-27T15:45:22.274Z,5.33
2018-07-27T15:47:52.070Z,4.92
2018-07-27T15:50:22.755Z,5.08
2018-07-27T15:52:53.098Z,4.80
2018-07-27T15:55:22.967Z,4.85
2018-07-27T15:57:52.740Z,5.37
2018-07-27T16:00:22.525Z,4.85
2018-07-27T16:02:52.384Z,5.37
2018-07-27T16:05:22.223Z,4.85
2018-07-27T16:07:51.992Z,4.70
2018-07-27T16:10:21.672Z,4.92
2018-07-27T16:12:51.414Z,5.10
2018-07-27T16:15:21.188Z,5.53
2018-07-27T16:17:51.091Z,5.45
2018-07-27T16:20:21.029Z,5.08
2018-07-27T16:22:50.898Z,5.55
2018-07-27T16:25:20.984Z,5.60
2018-07-27T16:27:51.213Z,5.58
2018-07-27T16:30:21.587Z,5.42
2018-07-27T16:32:51.546Z,5.47
2018-07-27T16:35:21.631Z,5.55
2018-07-27T16:37:51.512Z,5.42
2018-07-27T16:40:21.551Z,5.40
2018-07-27T16:42:51.220Z,5.75
2018-07-27T16:45:21.145Z,5.65
2018-07-27T16:47:50.744Z,5.58
2018-07-27T16:50:20.818Z,5.12
2018-07-27T16:52:50.701Z,5.78
2018-07-27T16:55:20.808Z,5.60
2018-07-27T16:57:50.805Z,5.10
2018-07-27T17:00:20.567Z,5.92
2018-07-27T17:02:50.322Z,5.40
2018-07-27T17:05:20.314Z,5.60
2018-07-27T17:07:50.894Z,5.95
2018-07-27T17:10:20.601Z,5.37
2018-07-27T17:12:50.378Z,5.65
2018-07-27T17:15:20.600Z,5.80
2018-07-27T17:17:50.497Z,5.75
2018-07-27T17:20:20.237Z,5.53
2018-07-27T17:22:50.396Z,5.72
2018-07-27T17:25:20.167Z,5.65
2018-07-27T17:27:49.741Z,6.40
2018-07-27T17:30:19.352Z,5.58
2018-07-27T17:32:49.196Z,6.37
2018-07-27T17:35:19.893Z,6.30
2018-07-27T17:37:49.680Z,6.55
2018-07-27T17:40:19.606Z,5.93
2018-07-27T17:42:49.380Z,6.28
2018-07-27T17:45:19.025Z,6.42
2018-07-27T17:47:49.183Z,6.45
2018-07-27T17:50:18.908Z,6.60
2018-07-27T17:52:48.554Z,6.50
2018-07-27T17:55:18.415Z,7.40
2018-07-27T17:57:48.314Z,6.53
2018-07-27T18:00:18.150Z,7.27
2018-07-27T18:02:47.849Z,6.90
2018-07-27T18:05:17.778Z,7.27
2018-07-27T18:07:47.526Z,7.20
2018-07-27T18:10:17.212Z,6.60
2018-07-27T18:12:46.868Z,7.40
2018-07-27T18:15:16.669Z,6.73
2018-07-27T18:17:46.385Z,6.83
2018-07-27T18:20:16.307Z,7.17
2018-07-27T18:22:46.031Z,7.13
2018-07-27T18:25:17.580Z,6.77
2018-07-27T18:27:47.768Z,7.33
2018-07-27T18:30:17.542Z,7.37
2018-07-27T18:32:46.886Z,7.97
2018-07-27T18:35:16.538Z,7.57
2018-07-27T18:37:46.194Z,7.53
2018-07-27T18:40:15.840Z,7.03
2018-07-27T18:42:45.596Z,7.47
2018-07-27T18:45:15.417Z,7.27
2018-07-27T18:47:45.048Z,7.60
2018-07-27T18:50:14.802Z,7.37
2018-07-27T18:52:45.545Z,7.60
2018-07-27T18:55:15.748Z,7.30
2018-07-27T18:57:45.587Z,7.63
2018-07-27T19:00:15.281Z,7.33
2018-07-27T19:02:45.074Z,7.27
2018-07-27T19:05:14.742Z,8.40
2018-07-27T19:07:44.427Z,8.00
2018-07-27T19:10:14.136Z,7.53
2018-07-27T19:12:43.861Z,7.57
2018-07-27T19:15:13.522Z,7.67
2018-07-27T19:17:43.245Z,7.90
2018-07-27T19:20:19.727Z,8.93
2018-07-27T19:22:49.455Z,8.40
2018-07-27T19:25:19.563Z,8.23
2018-07-27T19:27:49.648Z,7.50
2018-07-27T19:30:19.276Z,7.47
2018-07-27T19:32:49.140Z,8.03
2018-07-27T19:35:19.079Z,7.70
2018-07-27T19:37:49.166Z,7.63
2018-07-27T19:40:18.978Z,7.70
2018-07-27T19:42:48.737Z,7.50
2018-07-27T19:45:18.494Z,7.60
2018-07-27T19:47:48.141Z,7.67
2018-07-27T19:50:17.898Z,7.03
2018-07-27T19:52:47.819Z,7.50
2018-07-27T19:55:17.533Z,6.73
2018-07-27T19:57:47.217Z,6.97
2018-07-27T20:00:17.383Z,7.63
2018-07-27T20:02:47.069Z,6.73
2018-07-27T20:05:17.025Z,6.50
2018-07-27T20:07:47.308Z,6.63
2018-07-27T20:10:17.113Z,6.43
2018-07-27T20:12:46.745Z,6.50
2018-07-27T20:15:16.391Z,7.27
2018-07-27T20:17:45.743Z,7.10
2018-07-27T20:20:15.605Z,6.90
2018-07-27T20:22:45.382Z,7.00
2018-07-27T20:25:15.053Z,6.13
2018-07-27T20:27:44.993Z,6.70
2018-07-27T20:30:14.805Z,6.43
2018-07-27T20:32:44.409Z,6.60
2018-07-27T20:35:14.064Z,6.53
2018-07-27T20:37:43.707Z,6.30
2018-07-27T20:40:13.493Z,6.83
2018-07-27T20:42:43.266Z,6.50
2018-07-27T20:45:12.984Z,6.17
2018-07-27T20:47:42.649Z,6.97
2018-07-27T20:50:12.400Z,6.13
2018-07-27T20:52:42.094Z,6.10
2018-07-27T20:55:11.852Z,6.50
2018-07-27T20:57:42.018Z,6.30
2018-07-27T21:00:13.629Z,7.00
2018-07-27T21:02:44.986Z,6.77
2018-07-27T21:05:15.449Z,6.20
2018-07-27T21:07:45.152Z,7.77
2018-07-27T21:10:14.929Z,6.80
2018-07-27T21:12:44.667Z,6.73
2018-07-27T21:15:14.894Z,6.77
2018-07-27T21:17:44.552Z,6.60
2018-07-27T21:20:14.168Z,6.57
2018-07-27T21:22:43.914Z,6.53
2018-07-27T21:25:13.694Z,7.00
2018-07-27T21:27:43.430Z,6.30
2018-07-27T21:30:13.119Z,6.90
2018-07-27T21:32:42.920Z,7.10
2018-07-27T21:35:12.664Z,6.70
2018-07-27T21:37:42.719Z,6.90
2018-07-27T21:40:14.576Z,6.50
2018-07-27T21:42:45.097Z,6.67
2018-07-27T21:45:16.614Z,6.80
2018-07-27T21:47:53.177Z,6.37
2018-07-27T21:50:22.975Z,6.60
2018-07-27T21:52:52.846Z,6.73
2018-07-27T21:55:22.879Z,7.33
2018-07-27T21:57:53.228Z,6.83
2018-07-27T22:00:23.084Z,6.33
2018-07-27T22:02:52.775Z,6.70
2018-07-27T22:05:22.608Z,6.30
2018-07-27T22:07:55.528Z,6.53
2018-07-27T22:10:26.115Z,6.90
2018-07-27T22:12:57.415Z,6.90
2018-07-27T22:15:27.816Z,6.47
2018-07-27T22:17:57.660Z,6.80
2018-07-27T22:20:27.414Z,6.63
2018-07-27T22:22:57.076Z,7.27
2018-07-27T22:25:26.740Z,6.70
2018-07-27T22:27:56.490Z,6.60
2018-07-27T22:30:26.649Z,6.50
2018-07-27T22:32:56.291Z,6.83
2018-07-27T22:35:26.008Z,6.73
2018-07-27T22:37:55.700Z,6.33
2018-07-27T22:40:25.373Z,6.53
2018-07-27T22:42:55.187Z,6.53
2018-07-27T22:45:25.068Z,6.60
2018-07-27T22:47:55.119Z,6.67
2018-07-27T22:50:25.070Z,6.90
2018-07-27T22:52:54.810Z,7.10
2018-07-27T22:55:24.548Z,6.50
2018-07-27T22:57:54.261Z,6.67
2018-07-27T23:00:25.374Z,7.30
2018-07-27T23:02:55.466Z,7.57
2018-07-27T23:05:26.041Z,7.10
2018-07-27T23:07:55.805Z,7.47
2018-07-27T23:10:25.084Z,7.37
2018-07-27T23:12:55.005Z,6.93
2018-07-27T23:15:24.679Z,6.93
2018-07-27T23:17:54.453Z,6.57
2018-07-27T23:20:24.197Z,7.07
2018-07-27T23:22:53.961Z,6.70
2018-07-27T23:25:23.700Z,7.27
2018-07-27T23:27:53.561Z,7.17
2018-07-27T23:30:23.238Z,7.53
2018-07-27T23:32:52.918Z,8.03
2018-07-27T23:35:22.562Z,6.70
2018-07-27T23:37:52.230Z,6.53
2018-07-27T23:40:22.066Z,7.30
2018-07-27T23:42:52.628Z,7.47
2018-07-27T23:45:22.295Z,7.13
2018-07-27T23:47:51.980Z,6.50
2018-07-27T23:50:21.578Z,7.13
2018-07-27T23:52:51.682Z,7.00
2018-07-27T23:55:21.645Z,7.23
2018-07-27T23:57:51.350Z,7.60
